createdAt,value
2022-08-19T00:00:12.092Z,75.53
2022-08-19T00:01:05.898Z,75.48
2022-08-19T00:01:40.951Z,75.64
2022-08-19T00:02:13.970Z,75.62
2022-08-19T00:02:50.051Z,75.49
2022-08-19T00:03:23.564Z,75.66
2022-08-19T00:04:01.346Z,75.63
2022-08-19T00:04:38.241Z,75.64
2022-08-19T00:05:12.984Z,75.73
2022-08-19T00:05:46.767Z,75.69
2022-08-19T00:06:19.969Z,75.81
2022-08-19T00:06:54.730Z,75.85
2022-08-19T00:07:27.890Z,75.98
2022-08-19T00:08:01.223Z,75.93
2022-08-19T00:08:35.178Z,75.91
2022-08-19T00:09:11.931Z,76.02
2022-08-19T00:09:45.150Z,75.93
2022-08-19T00:10:20.413Z,76.10
2022-08-19T00:10:53.584Z,76.20
2022-08-19T00:11:28.889Z,76.13
2022-08-19T00:12:02.940Z,76.15
2022-08-19T00:12:36.830Z,76.13
2022-08-19T00:13:20.318Z,76.10
2022-08-19T00:13:54.325Z,76.19
2022-08-19T00:14:33.649Z,76.05
2022-08-19T00:15:12.893Z,76.04
2022-08-19T00:15:45.983Z,75.91
2022-08-19T00:16:25.161Z,75.87
2022-08-19T00:17:00.008Z,75.84
2022-08-19T00:17:33.376Z,75.61
2022-08-19T00:18:06.417Z,75.83
2022-08-19T00:18:39.502Z,75.62
2022-08-19T00:19:13.764Z,75.62
2022-08-19T00:19:47.262Z,75.58
2022-08-19T00:20:22.965Z,75.54
2022-08-19T00:20:56.672Z,75.48
2022-08-19T00:21:30.079Z,75.56
2022-08-19T00:22:04.481Z,75.54
2022-08-19T00:22:39.251Z,75.62
2022-08-19T00:23:12.702Z,75.70
2022-08-19T00:23:45.866Z,75.76
2022-08-19T00:24:20.161Z,75.78
2022-08-19T00:24:53.533Z,75.84
2022-08-19T00:25:30.407Z,75.84
2022-08-19T00:26:06.296Z,75.96
2022-08-19T00:26:40.787Z,76.06
2022-08-19T00:27:25.657Z,76.02
2022-08-19T00:28:00.895Z,75.99
2022-08-19T00:28:37.072Z,76.00
2022-08-19T00:29:13.360Z,75.99
2022-08-19T00:29:46.480Z,75.98
2022-08-19T00:30:28.399Z,75.87
2022-08-19T00:31:01.938Z,75.88
2022-08-19T00:31:35.374Z,75.71
2022-08-19T00:32:10.716Z,75.66
2022-08-19T00:32:44.156Z,75.68
2022-08-19T00:33:17.805Z,75.59
2022-08-19T00:33:51.784Z,75.61
2022-08-19T00:34:29.932Z,75.53
2022-08-19T00:35:03.159Z,75.43
2022-08-19T00:35:36.359Z,75.54
2022-08-19T00:36:10.570Z,75.50
2022-08-19T00:36:44.730Z,75.49
2022-08-19T00:37:17.929Z,75.51
2022-08-19T00:37:51.884Z,75.55
2022-08-19T00:38:27.266Z,75.59
2022-08-19T00:39:11.386Z,75.61
2022-08-19T00:39:44.599Z,75.61
2022-08-19T00:40:20.526Z,75.63
2022-08-19T00:40:53.735Z,75.61
2022-08-19T00:41:27.879Z,75.64
2022-08-19T00:42:01.131Z,75.59
2022-08-19T00:42:34.456Z,75.72
2022-08-19T00:43:14.321Z,75.69
2022-08-19T00:44:05.610Z,75.73
2022-08-19T00:44:39.831Z,75.74
2022-08-19T00:45:18.466Z,75.57
2022-08-19T00:45:52.938Z,75.71
2022-08-19T00:46:27.073Z,75.65
2022-08-19T00:47:01.067Z,75.67
2022-08-19T00:47:34.466Z,75.75
2022-08-19T00:48:14.751Z,75.82
2022-08-19T00:48:48.436Z,75.80
2022-08-19T00:49:27.868Z,75.77
2022-08-19T00:50:01.207Z,75.75
2022-08-19T00:50:35.711Z,75.73
2022-08-19T00:51:30.841Z,75.63
2022-08-19T00:52:15.378Z,75.65
2022-08-19T00:52:52.352Z,75.61
2022-08-19T00:53:28.759Z,75.58
2022-08-19T00:54:03.959Z,75.53
2022-08-19T00:54:40.546Z,75.50
2022-08-19T00:55:22.048Z,75.51
2022-08-19T00:55:59.535Z,75.38
2022-08-19T00:56:32.791Z,75.46
2022-08-19T00:57:10.691Z,75.36
2022-08-19T00:57:49.595Z,75.31
2022-08-19T00:58:28.753Z,75.32
2022-08-19T00:59:10.527Z,75.30
2022-08-19T01:00:00.325Z,75.29
2022-08-19T01:00:38.429Z,75.25
2022-08-19T01:01:12.206Z,75.23
2022-08-19T01:01:47.208Z,75.21
2022-08-19T01:02:21.057Z,75.25
2022-08-19T01:02:55.300Z,75.11
2022-08-19T01:03:56.914Z,75.12
2022-08-19T01:04:23.480Z,75.10
2022-08-19T01:04:57.455Z,75.04
2022-08-19T01:05:31.201Z,75.19
2022-08-19T01:06:04.396Z,75.16
2022-08-19T01:06:39.506Z,75.15
2022-08-19T01:07:15.212Z,75.23
2022-08-19T01:07:52.884Z,75.33
2022-08-19T01:08:26.282Z,75.30
2022-08-19T01:09:00.878Z,75.32
2022-08-19T01:09:35.336Z,75.23
2022-08-19T01:10:17.681Z,75.27
2022-08-19T01:10:59.442Z,75.24
2022-08-19T01:11:42.299Z,75.30
2022-08-19T01:12:17.009Z,75.29
2022-08-19T01:12:52.309Z,75.27
2022-08-19T01:13:49.395Z,75.33
2022-08-19T01:14:25.518Z,75.27
2022-08-19T01:15:00.243Z,75.34
2022-08-19T01:15:39.683Z,75.33
2022-08-19T01:16:14.416Z,75.36
2022-08-19T01:16:48.303Z,75.40
2022-08-19T01:17:22.390Z,75.38
2022-08-19T01:17:58.200Z,75.31
2022-08-19T01:18:33.697Z,75.24
2022-08-19T01:19:26.353Z,75.35
2022-08-19T01:19:59.839Z,75.12
2022-08-19T01:20:35.794Z,75.07
2022-08-19T01:21:48.677Z,75.02
2022-08-19T01:22:30.063Z,74.75
2022-08-19T01:23:04.620Z,74.66
2022-08-19T01:23:46.607Z,74.63
2022-08-19T01:24:19.829Z,74.67
2022-08-19T01:24:53.568Z,74.54
2022-08-19T01:25:36.403Z,74.53
2022-08-19T01:26:15.059Z,74.31
2022-08-19T01:26:48.866Z,74.39
2022-08-19T01:27:22.411Z,74.42
2022-08-19T01:27:55.742Z,74.44
2022-08-19T01:28:39.865Z,74.47
2022-08-19T01:29:13.993Z,74.57
2022-08-19T01:29:49.040Z,74.57
2022-08-19T01:30:26.728Z,74.67
2022-08-19T01:31:00.105Z,74.69
2022-08-19T01:31:33.553Z,74.76
2022-08-19T01:32:09.052Z,74.88
2022-08-19T01:33:03.230Z,74.99
2022-08-19T01:33:36.484Z,75.01
2022-08-19T01:34:10.326Z,75.10
2022-08-19T01:34:48.169Z,75.11
2022-08-19T01:35:24.639Z,75.15
2022-08-19T01:36:10.525Z,75.13
2022-08-19T01:36:50.433Z,75.14
2022-08-19T01:37:24.918Z,75.10
2022-08-19T01:38:07.231Z,75.08
2022-08-19T01:38:44.640Z,75.02
2022-08-19T01:39:24.289Z,75.01
2022-08-19T01:39:58.188Z,74.96
2022-08-19T01:40:34.573Z,74.94
2022-08-19T01:41:10.819Z,74.90
2022-08-19T01:41:44.694Z,74.90
2022-08-19T01:42:18.434Z,74.83
2022-08-19T01:42:52.409Z,74.92
2022-08-19T01:43:25.789Z,74.88
2022-08-19T01:44:16.914Z,74.89
2022-08-19T01:44:52.349Z,74.86
2022-08-19T01:45:28.843Z,74.95
2022-08-19T01:46:02.098Z,74.92
2022-08-19T01:46:35.652Z,74.89
2022-08-19T01:47:10.877Z,74.91
2022-08-19T01:47:44.402Z,74.95
2022-08-19T01:48:31.566Z,74.93
2022-08-19T01:49:07.286Z,74.85
2022-08-19T01:49:40.610Z,74.92
2022-08-19T01:50:15.321Z,74.88
2022-08-19T01:50:49.194Z,74.99
2022-08-19T01:51:22.649Z,74.90
2022-08-19T01:51:56.239Z,74.89
2022-08-19T01:52:29.345Z,74.94
2022-08-19T01:53:06.730Z,74.89
2022-08-19T01:53:41.932Z,74.92
2022-08-19T01:54:23.394Z,75.01
2022-08-19T01:55:01.248Z,75.01
2022-08-19T01:55:40.846Z,75.14
2022-08-19T01:56:14.807Z,75.16
2022-08-19T01:56:50.089Z,75.20
2022-08-19T01:57:24.401Z,75.29
2022-08-19T01:58:01.317Z,75.35
2022-08-19T01:58:46.360Z,75.38
2022-08-19T01:59:23.461Z,75.46
2022-08-19T01:59:57.947Z,75.51
2022-08-19T02:00:33.714Z,75.61
2022-08-19T02:01:08.674Z,75.63
2022-08-19T02:01:42.491Z,75.53
2022-08-19T02:02:15.853Z,75.47
2022-08-19T02:02:49.189Z,75.56
2022-08-19T02:03:22.410Z,75.55
2022-08-19T02:03:56.880Z,75.56
2022-08-19T02:04:30.251Z,75.52
2022-08-19T02:05:05.420Z,75.51
2022-08-19T02:05:39.896Z,75.47
2022-08-19T02:06:13.444Z,75.47
2022-08-19T02:06:46.612Z,75.48
2022-08-19T02:07:23.033Z,75.48
2022-08-19T02:07:57.721Z,75.56
2022-08-19T02:08:31.715Z,75.53
2022-08-19T02:09:09.389Z,75.43
2022-08-19T02:09:42.899Z,75.46
2022-08-19T02:10:21.012Z,75.45
2022-08-19T02:10:54.949Z,75.48
2022-08-19T02:11:32.952Z,75.40
2022-08-19T02:12:09.080Z,75.39
2022-08-19T02:12:42.298Z,75.31
2022-08-19T02:13:15.400Z,75.40
2022-08-19T02:13:50.635Z,75.31
2022-08-19T02:14:24.715Z,75.26
2022-08-19T02:14:58.348Z,75.21
2022-08-19T02:15:31.499Z,75.14
2022-08-19T02:16:04.697Z,75.14
2022-08-19T02:16:38.752Z,75.17
2022-08-19T02:17:11.760Z,75.14
2022-08-19T02:17:44.978Z,75.22
2022-08-19T02:18:18.201Z,75.19
2022-08-19T02:18:52.332Z,75.24
2022-08-19T02:19:25.570Z,75.22
2022-08-19T02:19:58.999Z,75.25
2022-08-19T02:20:32.405Z,75.28
2022-08-19T02:21:05.887Z,75.25
2022-08-19T02:21:39.106Z,75.23
2022-08-19T02:22:12.199Z,75.14
2022-08-19T02:22:45.502Z,75.06
2022-08-19T02:23:18.982Z,75.10
2022-08-19T02:23:52.262Z,75.10
2022-08-19T02:24:25.951Z,75.06
2022-08-19T02:24:59.176Z,75.11
2022-08-19T02:25:32.473Z,75.10
2022-08-19T02:26:06.333Z,75.01
2022-08-19T02:26:39.431Z,75.03
2022-08-19T02:27:12.951Z,74.98
2022-08-19T02:27:46.194Z,74.99
2022-08-19T02:28:19.433Z,74.99
2022-08-19T02:28:52.460Z,75.01
2022-08-19T02:29:25.618Z,74.93
2022-08-19T02:29:59.017Z,74.93
2022-08-19T02:30:32.577Z,74.95
2022-08-19T02:31:15.870Z,74.94
2022-08-19T02:31:49.329Z,74.99
2022-08-19T02:32:22.723Z,75.04
2022-08-19T02:32:56.165Z,74.99
2022-08-19T02:33:30.676Z,75.02
2022-08-19T02:34:04.318Z,74.96
2022-08-19T02:34:37.486Z,74.99
2022-08-19T02:35:12.339Z,75.07
2022-08-19T02:35:47.952Z,75.05
2022-08-19T02:36:21.363Z,75.07
2022-08-19T02:36:55.312Z,75.12
2022-08-19T02:37:47.587Z,75.14
2022-08-19T02:38:26.648Z,75.20
2022-08-19T02:39:00.002Z,75.20
2022-08-19T02:39:33.620Z,75.26
2022-08-19T02:40:12.740Z,75.20
2022-08-19T02:40:53.011Z,75.16
2022-08-19T02:41:29.305Z,75.18
2022-08-19T02:42:03.316Z,75.16
2022-08-19T02:42:36.628Z,75.23
2022-08-19T02:43:10.428Z,75.18
2022-08-19T02:44:22.927Z,75.26
2022-08-19T02:44:38.334Z,75.27
2022-08-19T02:45:11.772Z,75.32
2022-08-19T02:45:45.086Z,75.35
2022-08-19T02:46:19.278Z,75.31
2022-08-19T02:46:52.631Z,75.39
2022-08-19T02:47:26.250Z,75.41
2022-08-19T02:47:59.344Z,75.40
2022-08-19T02:48:34.168Z,75.57
2022-08-19T02:49:09.338Z,75.67
2022-08-19T02:49:43.047Z,75.69
2022-08-19T02:50:16.206Z,75.84
2022-08-19T02:50:56.516Z,75.87
2022-08-19T02:51:40.044Z,76.00
2022-08-19T02:52:13.710Z,75.98
2022-08-19T02:52:46.874Z,76.06
2022-08-19T02:53:20.295Z,76.07
2022-08-19T02:53:54.716Z,76.08
2022-08-19T02:54:28.553Z,76.20
2022-08-19T02:55:02.466Z,76.25
2022-08-19T02:55:46.028Z,76.28
2022-08-19T02:56:21.162Z,76.18
2022-08-19T02:56:54.335Z,76.32
2022-08-19T02:57:28.784Z,76.39
2022-08-19T02:58:02.734Z,76.46
2022-08-19T02:58:41.979Z,76.41
2022-08-19T02:59:16.444Z,76.51
2022-08-19T02:59:49.564Z,76.59
2022-08-19T03:00:22.777Z,76.61
2022-08-19T03:00:58.123Z,76.77
2022-08-19T03:01:33.718Z,76.78
2022-08-19T03:02:06.810Z,76.77
2022-08-19T03:02:40.690Z,76.83
2022-08-19T03:03:13.888Z,76.87
2022-08-19T03:03:47.881Z,76.88
2022-08-19T03:04:20.963Z,76.89
2022-08-19T03:04:54.123Z,76.90
2022-08-19T03:05:55.761Z,76.94
2022-08-19T03:06:23.021Z,76.97
2022-08-19T03:06:59.569Z,77.15
2022-08-19T03:07:36.436Z,77.28
2022-08-19T03:08:13.708Z,77.40
2022-08-19T03:08:48.614Z,77.44
2022-08-19T03:09:22.086Z,77.45
2022-08-19T03:09:55.380Z,77.47
2022-08-19T03:10:29.122Z,77.43
2022-08-19T03:11:02.255Z,77.47
2022-08-19T03:11:36.582Z,77.50
2022-08-19T03:12:09.789Z,77.54
2022-08-19T03:12:43.058Z,77.52
2022-08-19T03:13:19.613Z,77.52
2022-08-19T03:13:54.983Z,77.53
2022-08-19T03:14:29.148Z,77.55
2022-08-19T03:15:02.324Z,77.65
2022-08-19T03:15:35.464Z,77.65
2022-08-19T03:16:08.559Z,77.65
2022-08-19T03:16:53.591Z,77.69
2022-08-19T03:17:26.711Z,77.72
2022-08-19T03:17:59.802Z,77.74
2022-08-19T03:18:32.994Z,77.74
2022-08-19T03:19:06.143Z,77.71
2022-08-19T03:19:39.552Z,77.77
2022-08-19T03:20:12.778Z,77.67
2022-08-19T03:20:49.310Z,77.67
2022-08-19T03:21:26.840Z,77.65
2022-08-19T03:31:43.423Z,77.82
2022-08-19T03:32:32.229Z,77.85
2022-08-19T03:33:07.160Z,77.89
2022-08-19T03:33:43.084Z,77.91
2022-08-19T03:34:27.450Z,77.99
2022-08-19T03:35:00.941Z,78.00
2022-08-19T03:35:34.566Z,78.04
2022-08-19T03:36:16.318Z,78.14
2022-08-19T03:36:49.853Z,78.14
2022-08-19T03:37:23.686Z,78.14
2022-08-19T03:37:58.230Z,78.14
2022-08-19T03:38:31.688Z,78.33
2022-08-19T03:39:05.691Z,78.26
2022-08-19T03:39:40.771Z,78.32
2022-08-19T03:40:16.710Z,78.26
2022-08-19T03:40:50.196Z,78.28
2022-08-19T03:41:26.055Z,78.31
2022-08-19T03:42:38.643Z,78.32
2022-08-19T03:43:11.395Z,78.27
2022-08-19T03:43:48.066Z,78.33
2022-08-19T03:44:23.581Z,78.41
2022-08-19T03:44:56.892Z,78.44
2022-08-19T03:45:30.425Z,78.51
2022-08-19T03:46:06.553Z,78.64
2022-08-19T03:46:39.777Z,78.64
2022-08-19T03:47:18.141Z,78.75
2022-08-19T03:47:51.282Z,78.87
2022-08-19T03:48:24.962Z,78.90
2022-08-19T03:49:00.464Z,78.99
2022-08-19T03:49:36.875Z,79.04
2022-08-19T03:50:10.548Z,79.17
2022-08-19T03:50:44.621Z,79.19
2022-08-19T03:51:30.706Z,79.35
2022-08-19T03:52:08.608Z,79.32
2022-08-19T03:52:45.438Z,79.40
2022-08-19T03:53:20.213Z,79.43
2022-08-19T03:53:56.019Z,79.52
2022-08-19T03:54:30.250Z,79.60
2022-08-19T03:55:04.558Z,79.69
2022-08-19T03:55:42.558Z,79.74
2022-08-19T03:56:16.604Z,79.78
2022-08-19T03:56:51.975Z,79.75
2022-08-19T03:57:25.159Z,79.80
2022-08-19T03:58:05.544Z,79.76
2022-08-19T03:58:38.956Z,79.82
2022-08-19T03:59:23.648Z,79.90
2022-08-19T03:59:56.786Z,79.95
2022-08-19T04:00:46.994Z,80.04
2022-08-19T04:01:34.890Z,80.09
2022-08-19T04:02:12.196Z,80.10
2022-08-19T04:02:56.513Z,80.16
2022-08-19T04:03:31.948Z,80.24
2022-08-19T04:04:05.767Z,80.32
2022-08-19T04:04:41.511Z,80.28
2022-08-19T04:05:15.691Z,80.31
2022-08-19T04:05:48.918Z,80.34
2022-08-19T04:06:25.441Z,80.45
2022-08-19T04:06:58.657Z,80.48
2022-08-19T04:07:31.853Z,80.59
2022-08-19T04:08:09.702Z,80.65
2022-08-19T04:08:47.396Z,80.69
2022-08-19T04:09:21.795Z,80.70
2022-08-19T04:09:55.083Z,80.75
2022-08-19T04:10:29.922Z,80.84
2022-08-19T04:11:07.853Z,80.92
2022-08-19T04:11:45.155Z,80.89
2022-08-19T04:12:18.725Z,81.00
2022-08-19T04:12:52.071Z,81.00
2022-08-19T04:13:25.316Z,81.01
2022-08-19T04:13:58.714Z,81.01
2022-08-19T04:14:32.900Z,81.04
2022-08-19T04:15:07.331Z,81.11
2022-08-19T04:15:44.750Z,81.13
2022-08-19T04:16:21.074Z,81.18
2022-08-19T04:17:06.142Z,81.21
2022-08-19T04:17:39.327Z,81.18
2022-08-19T04:18:12.629Z,81.21
2022-08-19T04:18:46.018Z,81.27
2022-08-19T04:19:20.391Z,81.23
2022-08-19T04:19:53.609Z,81.32
2022-08-19T04:20:27.328Z,81.37
2022-08-19T04:21:02.077Z,81.31
2022-08-19T04:21:35.811Z,81.35
2022-08-19T04:22:09.076Z,81.37
2022-08-19T04:22:42.400Z,81.37
2022-08-19T04:23:16.292Z,81.49
2022-08-19T04:23:50.064Z,81.47
2022-08-19T04:24:26.377Z,81.45
2022-08-19T04:24:59.646Z,81.49
2022-08-19T04:25:38.497Z,81.51
2022-08-19T04:26:35.096Z,81.46
2022-08-19T04:27:08.339Z,81.51
2022-08-19T04:27:48.064Z,81.59
2022-08-19T04:28:21.174Z,81.63
2022-08-19T04:28:54.956Z,81.65
2022-08-19T04:29:28.807Z,81.68
2022-08-19T04:30:02.028Z,81.72
2022-08-19T04:31:01.221Z,81.71
2022-08-19T04:31:36.975Z,81.69
2022-08-19T04:32:10.240Z,81.69
2022-08-19T04:32:44.944Z,81.73
2022-08-19T04:33:23.995Z,81.78
2022-08-19T04:34:02.707Z,81.70
2022-08-19T04:34:35.977Z,81.82
2022-08-19T04:35:17.473Z,81.77
2022-08-19T04:35:54.000Z,81.79
2022-08-19T04:36:34.281Z,81.76
2022-08-19T04:37:14.466Z,81.80
2022-08-19T04:37:47.800Z,81.76
2022-08-19T04:38:25.840Z,81.76
2022-08-19T04:39:02.131Z,81.66
2022-08-19T04:39:54.108Z,81.75
2022-08-19T04:40:52.399Z,81.77
2022-08-19T04:41:45.450Z,81.79
2022-08-19T04:42:39.021Z,81.82
2022-08-19T04:43:15.152Z,81.96
2022-08-19T04:43:51.731Z,81.91
2022-08-19T04:44:25.208Z,81.96
2022-08-19T04:45:00.026Z,81.93
2022-08-19T04:45:39.460Z,81.93
2022-08-19T04:46:37.534Z,81.96
2022-08-19T04:47:11.174Z,81.96
2022-08-19T04:47:47.072Z,81.96
2022-08-19T04:48:28.138Z,81.92
2022-08-19T04:49:10.343Z,82.00
2022-08-19T04:49:43.827Z,81.92
2022-08-19T04:50:17.108Z,81.92
2022-08-19T04:50:50.410Z,81.94
2022-08-19T04:51:24.312Z,81.91
2022-08-19T04:51:57.457Z,81.84
2022-08-19T04:52:33.424Z,82.06
2022-08-19T04:53:06.509Z,81.88
2022-08-19T04:53:43.540Z,82.00
2022-08-19T04:54:37.248Z,81.80
2022-08-19T04:55:13.824Z,81.88
2022-08-19T04:55:46.886Z,82.00
2022-08-19T04:56:27.337Z,81.98
2022-08-19T04:57:00.520Z,81.96
2022-08-19T04:57:33.599Z,82.01
2022-08-19T04:58:07.880Z,82.08
2022-08-19T04:58:43.779Z,81.91
2022-08-19T04:59:19.989Z,82.02
2022-08-19T04:59:57.331Z,81.99
2022-08-19T05:00:30.579Z,82.02
2022-08-19T05:01:05.206Z,81.98
2022-08-19T05:01:38.464Z,82.05
2022-08-19T05:02:11.736Z,82.05
2022-08-19T05:02:44.855Z,82.08
2022-08-19T05:03:18.615Z,82.10
2022-08-19T05:03:51.868Z,82.01
2022-08-19T05:04:24.909Z,82.08
2022-08-19T05:05:00.860Z,82.12
2022-08-19T05:05:45.083Z,82.08
2022-08-19T05:06:21.073Z,82.09
2022-08-19T05:07:00.913Z,82.06
2022-08-19T05:07:35.408Z,82.00
2022-08-19T05:08:09.004Z,81.95
2022-08-19T05:08:44.606Z,81.97
2022-08-19T05:09:18.215Z,81.94
2022-08-19T05:09:58.323Z,81.83
2022-08-19T05:10:32.434Z,81.82
2022-08-19T05:11:15.711Z,81.93
2022-08-19T05:11:54.140Z,81.84
2022-08-19T05:12:30.003Z,81.94
2022-08-19T05:13:03.915Z,81.90
2022-08-19T05:13:37.039Z,81.93
2022-08-19T05:14:14.219Z,81.98
2022-08-19T05:14:48.512Z,81.87
2022-08-19T05:15:21.718Z,81.88
2022-08-19T05:15:58.348Z,81.85
2022-08-19T05:16:32.725Z,81.76
2022-08-19T05:17:26.112Z,81.78
2022-08-19T05:18:18.190Z,81.79
2022-08-19T05:19:13.779Z,81.86
2022-08-19T05:20:25.790Z,81.81
2022-08-19T05:21:17.597Z,81.84
2022-08-19T05:22:09.776Z,81.81
2022-08-19T05:22:46.586Z,81.78
2022-08-19T05:23:22.794Z,81.80
2022-08-19T05:23:56.432Z,81.66
2022-08-19T05:24:30.631Z,81.68
2022-08-19T05:25:16.368Z,81.82
2022-08-19T05:25:49.757Z,81.66
2022-08-19T05:26:23.128Z,81.69
2022-08-19T05:27:00.352Z,81.69
2022-08-19T05:27:34.013Z,81.82
2022-08-19T05:28:07.096Z,81.75
2022-08-19T05:28:40.492Z,81.76
2022-08-19T05:29:16.828Z,81.71
2022-08-19T05:29:49.944Z,81.67
2022-08-19T05:30:30.241Z,81.70
2022-08-19T05:31:15.728Z,81.71
2022-08-19T05:31:53.121Z,81.68
2022-08-19T05:32:26.423Z,81.73
2022-08-19T05:32:59.725Z,81.66
2022-08-19T05:33:32.897Z,81.71
2022-08-19T05:34:07.417Z,81.68
2022-08-19T05:34:53.748Z,81.63
2022-08-19T05:35:27.031Z,81.53
2022-08-19T05:36:00.511Z,81.61
2022-08-19T05:36:44.421Z,81.69
2022-08-19T05:37:18.363Z,81.53
2022-08-19T05:37:52.694Z,81.62
2022-08-19T05:38:32.182Z,81.79
2022-08-19T05:39:05.765Z,81.49
2022-08-19T05:39:39.559Z,81.70
2022-08-19T05:40:12.927Z,81.62
2022-08-19T05:40:48.268Z,81.64
2022-08-19T05:41:24.505Z,81.57
2022-08-19T05:42:00.665Z,81.72
2022-08-19T05:42:33.770Z,81.84
2022-08-19T05:43:09.254Z,81.71
2022-08-19T05:43:42.968Z,81.56
2022-08-19T05:44:18.027Z,81.63
2022-08-19T05:44:52.391Z,81.49
2022-08-19T05:45:26.087Z,81.47
2022-08-19T05:45:59.637Z,81.54
2022-08-19T05:46:33.600Z,81.65
2022-08-19T05:47:09.702Z,81.55
2022-08-19T05:47:42.850Z,81.48
2022-08-19T05:48:16.131Z,81.46
2022-08-19T05:48:49.889Z,81.43
2022-08-19T05:49:28.483Z,81.41
2022-08-19T05:50:05.032Z,81.32
2022-08-19T05:50:40.652Z,81.45
2022-08-19T05:51:14.601Z,81.33
2022-08-19T05:51:51.235Z,81.08
2022-08-19T05:52:25.893Z,81.11
2022-08-19T05:52:59.931Z,81.06
2022-08-19T05:53:34.924Z,80.96
2022-08-19T05:54:14.627Z,80.81
2022-08-19T05:54:51.445Z,80.92
2022-08-19T05:55:25.134Z,80.81
2022-08-19T05:55:58.404Z,80.67
2022-08-19T05:56:32.970Z,80.68
2022-08-19T05:57:06.275Z,80.82
2022-08-19T05:57:39.767Z,80.84
2022-08-19T05:58:13.012Z,80.70
2022-08-19T05:58:46.755Z,80.75
2022-08-19T05:59:22.684Z,80.65
2022-08-19T06:00:01.486Z,80.59
2022-08-19T06:00:36.039Z,80.53
2022-08-19T06:01:17.711Z,80.54
2022-08-19T06:01:52.816Z,80.38
2022-08-19T06:02:29.929Z,80.33
2022-08-19T06:03:11.866Z,80.24
2022-08-19T06:03:48.917Z,80.19
2022-08-19T06:04:23.330Z,79.92
2022-08-19T06:04:56.704Z,79.88
2022-08-19T06:05:31.554Z,79.77
2022-08-19T06:06:06.668Z,79.60
2022-08-19T06:06:40.429Z,79.55
2022-08-19T06:07:14.080Z,79.45
2022-08-19T06:07:48.311Z,79.21
2022-08-19T06:08:33.490Z,79.24
2022-08-19T06:09:09.183Z,79.14
2022-08-19T06:09:59.047Z,79.17
2022-08-19T06:10:34.813Z,79.15
2022-08-19T06:11:55.995Z,79.07
2022-08-19T06:12:33.000Z,79.11
2022-08-19T06:13:07.126Z,78.93
2022-08-19T06:13:40.385Z,78.77
2022-08-19T06:14:18.366Z,78.66
2022-08-19T06:14:56.036Z,78.67
2022-08-19T06:15:34.995Z,78.52
2022-08-19T06:16:08.624Z,78.49
2022-08-19T06:16:43.507Z,78.44
2022-08-19T06:17:17.282Z,78.27
2022-08-19T06:17:52.450Z,78.14
2022-08-19T06:18:25.954Z,77.96
2022-08-19T06:19:01.879Z,77.99
2022-08-19T06:19:41.057Z,77.88
2022-08-19T06:20:16.230Z,77.79
2022-08-19T06:20:55.993Z,77.75
2022-08-19T06:21:31.361Z,77.69
2022-08-19T06:22:05.907Z,77.64
2022-08-19T06:22:44.339Z,77.51
2022-08-19T06:23:17.919Z,77.45
2022-08-19T06:23:53.361Z,77.32
2022-08-19T06:24:29.073Z,77.27
2022-08-19T06:25:02.682Z,77.20
2022-08-19T06:25:37.206Z,77.10
2022-08-19T06:26:13.797Z,76.98
2022-08-19T06:27:27.629Z,76.83
2022-08-19T06:28:16.270Z,76.73
2022-08-19T06:28:50.156Z,76.76
2022-08-19T06:29:25.608Z,76.68
2022-08-19T06:29:58.869Z,76.54
2022-08-19T06:30:32.256Z,76.35
2022-08-19T06:31:08.710Z,75.96
2022-08-19T06:31:45.596Z,75.86
2022-08-19T06:32:20.486Z,75.72
2022-08-19T06:32:53.781Z,75.54
2022-08-19T06:33:27.198Z,75.48
2022-08-19T06:34:05.104Z,75.28
2022-08-19T06:34:38.378Z,75.28
2022-08-19T06:35:12.517Z,75.21
2022-08-19T06:36:37.389Z,75.04
2022-08-19T06:37:10.661Z,74.97
2022-08-19T06:37:44.228Z,74.79
2022-08-19T06:38:17.412Z,74.74
2022-08-19T06:38:50.712Z,74.62
2022-08-19T06:39:26.812Z,74.60
2022-08-19T06:40:00.404Z,74.54
2022-08-19T06:40:33.701Z,74.57
2022-08-19T06:41:08.127Z,74.55
2022-08-19T06:41:49.364Z,74.54
2022-08-19T06:42:25.210Z,74.63
2022-08-19T06:43:01.267Z,74.62
2022-08-19T06:43:41.223Z,74.45
2022-08-19T06:44:16.589Z,74.33
2022-08-19T06:44:53.586Z,74.31
2022-08-19T06:45:35.507Z,74.15
2022-08-19T06:46:15.049Z,74.04
2022-08-19T06:46:53.582Z,73.94
2022-08-19T06:47:29.071Z,73.87
2022-08-19T06:48:02.634Z,73.72
2022-08-19T06:48:44.952Z,73.65
2022-08-19T06:49:19.532Z,73.66
2022-08-19T06:50:02.918Z,73.52
2022-08-19T06:50:36.762Z,73.38
2022-08-19T06:51:16.842Z,73.30
2022-08-19T06:51:52.610Z,73.10
2022-08-19T06:52:25.820Z,73.02
2022-08-19T06:53:03.593Z,72.94
2022-08-19T06:53:38.271Z,72.86
2022-08-19T06:54:19.001Z,72.80
2022-08-19T06:54:55.763Z,72.70
2022-08-19T06:55:31.509Z,72.61
2022-08-19T06:56:06.895Z,72.49
2022-08-19T06:56:40.243Z,72.39
2022-08-19T06:57:16.301Z,72.19
2022-08-19T06:57:52.269Z,72.07
2022-08-19T06:58:25.628Z,71.99
2022-08-19T06:58:59.968Z,71.94
2022-08-19T06:59:36.333Z,71.91
2022-08-19T07:00:15.041Z,71.84
2022-08-19T07:00:48.200Z,71.85
2022-08-19T07:01:21.756Z,71.77
2022-08-19T07:01:57.973Z,71.86
2022-08-19T07:02:31.442Z,71.92
2022-08-19T07:03:08.240Z,71.76
2022-08-19T07:03:42.098Z,71.86
2022-08-19T07:04:17.781Z,71.71
2022-08-19T07:04:52.827Z,71.66
2022-08-19T07:05:26.421Z,71.52
2022-08-19T07:06:09.815Z,71.38
2022-08-19T07:06:55.060Z,71.43
2022-08-19T07:07:28.661Z,71.22
2022-08-19T07:08:04.964Z,71.10
2022-08-19T07:08:42.373Z,71.10
2022-08-19T07:09:19.424Z,71.11
2022-08-19T07:09:59.974Z,70.94
2022-08-19T07:10:36.449Z,70.88
2022-08-19T07:11:11.763Z,70.77
2022-08-19T07:11:50.418Z,70.57
2022-08-19T07:12:23.748Z,70.57
2022-08-19T07:12:57.261Z,70.33
2022-08-19T07:13:30.785Z,70.17
2022-08-19T07:14:04.264Z,70.02
2022-08-19T07:14:38.877Z,70.02
2022-08-19T07:15:13.974Z,69.99
2022-08-19T07:15:48.204Z,69.92
2022-08-19T07:16:29.131Z,69.73
2022-08-19T07:17:03.144Z,69.64
2022-08-19T07:17:39.141Z,69.68
2022-08-19T07:18:12.474Z,69.57
2022-08-19T07:18:45.667Z,69.60
2022-08-19T07:19:21.356Z,69.42
2022-08-19T07:19:54.849Z,69.47
2022-08-19T07:20:29.537Z,69.29
2022-08-19T07:21:11.160Z,69.27
2022-08-19T07:21:44.687Z,68.92
2022-08-19T07:22:19.237Z,68.92
2022-08-19T07:22:52.651Z,68.93
2022-08-19T07:23:27.115Z,68.97
2022-08-19T07:24:04.056Z,68.88
2022-08-19T07:24:40.410Z,69.06
2022-08-19T07:25:32.077Z,68.91
2022-08-19T07:26:10.753Z,68.74
2022-08-19T07:26:45.079Z,68.73
2022-08-19T07:27:18.881Z,68.69
2022-08-19T07:27:58.184Z,68.50
2022-08-19T07:28:33.395Z,68.54
2022-08-19T07:29:08.255Z,68.28
2022-08-19T07:29:41.821Z,68.17
2022-08-19T07:30:15.413Z,68.25
2022-08-19T07:30:49.999Z,68.25
2022-08-19T07:31:28.423Z,68.12
2022-08-19T07:32:05.773Z,68.21
2022-08-19T07:32:45.106Z,67.99
2022-08-19T07:33:19.425Z,68.05
2022-08-19T07:33:56.497Z,68.01
2022-08-19T07:34:31.768Z,67.89
2022-08-19T07:35:06.073Z,67.85
2022-08-19T07:35:39.410Z,67.58
2022-08-19T07:36:15.601Z,67.68
2022-08-19T07:36:48.901Z,67.52
2022-08-19T07:37:22.086Z,67.57
2022-08-19T07:37:55.839Z,67.22
2022-08-19T07:38:29.321Z,67.22
2022-08-19T07:39:09.735Z,67.14
2022-08-19T07:39:43.063Z,67.31
2022-08-19T07:40:16.750Z,67.20
2022-08-19T07:40:50.059Z,67.29
2022-08-19T07:41:26.543Z,67.15
2022-08-19T07:42:02.139Z,67.22
2022-08-19T07:42:35.536Z,67.16
2022-08-19T07:43:12.337Z,67.15
2022-08-19T07:43:48.942Z,67.17
2022-08-19T07:44:22.748Z,67.07
2022-08-19T07:44:56.576Z,67.16
2022-08-19T07:45:30.665Z,67.10
2022-08-19T07:46:04.480Z,67.10
2022-08-19T07:46:41.477Z,67.06
2022-08-19T07:47:48.215Z,67.12
2022-08-19T07:48:10.145Z,67.15
2022-08-19T07:48:46.824Z,67.13
2022-08-19T07:49:21.647Z,67.07
2022-08-19T07:49:55.221Z,67.10
2022-08-19T07:50:28.599Z,67.02
2022-08-19T07:51:04.483Z,67.11
2022-08-19T07:51:38.449Z,66.74
2022-08-19T07:52:12.404Z,66.78
2022-08-19T07:52:49.021Z,66.73
2022-08-19T07:53:24.158Z,66.84
2022-08-19T07:53:57.915Z,66.54
2022-08-19T07:54:35.811Z,66.54
2022-08-19T07:55:40.334Z,66.52
2022-08-19T07:56:07.380Z,66.67
2022-08-19T07:56:41.589Z,66.50
2022-08-19T07:57:15.409Z,66.30
2022-08-19T07:57:49.822Z,66.42
2022-08-19T07:58:24.438Z,66.31
2022-08-19T07:58:58.393Z,66.21
2022-08-19T07:59:32.480Z,66.08
2022-08-19T08:00:08.253Z,66.10